Weather at McCalla Field [CLOSED]

Public forecast

Using degrees Celsius for public forecast. Weather courtesy of forecast.io.

Closest aviation weather report (METAR) to McCalla Field

Closest report is Leeward Point Field, 2.4 nm (4.5 km) W. Retrieved 2022/01/23 06:51 UTC (2 hours ago):

MUGM 230651Z 33005KT 10SM FEW018 SCT030 23/22 A2998 RMK AO2 SLP152 T02330217

Closest aviation forecast (TAF) to McCalla Field

Forecast is more than 12 hours old.

Closest forecast is Leeward Point Field, 2.4 nm (4.5 km) W. Retrieved 2021/10/13 07:06 UTC (3 months ago):

TAF MUGM 130700Z 1307/1407 VRB06KT 8000 BR FEW025 FEW280 QNH2978INS BECMG 1314/1315 VRB06KT 8000 BR SCT017 SCT025CB BKN150 QNH2976INS BECMG 1402/1403 VRB06KT 8000 BR BKN025 OVC040 QNH2976INS T24/1311Z T29/1318Z FN00231